createdAt,value
2022-07-25T00:02:01.225Z,8.43
2022-07-25T00:04:31.507Z,7.43
2022-07-25T00:07:01.188Z,7.68
2022-07-25T00:09:30.533Z,7.32
2022-07-25T00:12:02.039Z,8.27
2022-07-25T00:14:31.431Z,7.18
2022-07-25T00:17:00.848Z,7.57
2022-07-25T00:19:30.233Z,7.80
2022-07-25T00:21:59.784Z,7.63
2022-07-25T00:24:29.043Z,6.78
2022-07-25T00:27:00.133Z,7.55
2022-07-25T00:29:29.629Z,7.88
2022-07-25T00:31:59.522Z,6.80
2022-07-25T00:34:28.907Z,6.43
2022-07-25T00:36:58.188Z,6.80
2022-07-25T00:39:27.692Z,7.63
2022-07-25T00:41:57.156Z,7.97
2022-07-25T00:44:32.305Z,7.13
2022-07-25T00:47:01.937Z,7.00
2022-07-25T00:49:31.433Z,9.57
2022-07-25T00:52:01.511Z,5.82
2022-07-25T00:54:31.570Z,6.72
2022-07-25T00:57:00.859Z,6.68
2022-07-25T00:59:31.689Z,5.78
2022-07-25T01:02:03.874Z,4.85
2022-07-25T01:04:34.028Z,4.85
2022-07-25T01:07:04.036Z,6.55
2022-07-25T01:09:34.020Z,7.15
2022-07-25T01:12:03.290Z,4.95
2022-07-25T01:14:33.088Z,5.03
2022-07-25T01:17:02.389Z,5.55
2022-07-25T01:19:31.752Z,6.13
2022-07-25T01:22:01.107Z,6.68
2022-07-25T01:24:31.717Z,4.50
2022-07-25T01:27:01.153Z,4.40
2022-07-25T01:29:30.701Z,5.00
2022-07-25T01:32:00.228Z,4.93
2022-07-25T01:34:29.656Z,5.75
2022-07-25T01:36:58.987Z,5.95
2022-07-25T01:39:28.335Z,6.25
2022-07-25T01:41:57.751Z,5.25
2022-07-25T01:44:27.051Z,4.07
2022-07-25T01:46:56.365Z,5.53
2022-07-25T01:49:27.847Z,5.25
2022-07-25T01:51:57.427Z,3.13
2022-07-25T01:54:26.880Z,3.38
2022-07-25T01:56:56.403Z,8.20
2022-07-25T01:59:25.904Z,6.65
2022-07-25T02:01:55.623Z,5.22
2022-07-25T02:04:25.243Z,4.82
2022-07-25T02:06:54.534Z,5.22
2022-07-25T02:09:24.108Z,4.78
2022-07-25T02:11:53.605Z,5.03
2022-07-25T02:14:23.847Z,7.95
2022-07-25T02:16:53.341Z,4.63
2022-07-25T02:19:22.726Z,6.13
2022-07-25T02:21:52.240Z,6.18
2022-07-25T02:24:21.688Z,4.30
2022-07-25T02:26:50.924Z,4.38
2022-07-25T02:29:22.179Z,3.88
2022-07-25T02:31:53.211Z,4.40
2022-07-25T02:34:22.626Z,5.20
2022-07-25T02:36:51.979Z,3.95
2022-07-25T02:39:22.396Z,4.70
2022-07-25T02:41:51.701Z,5.45
2022-07-25T02:44:21.007Z,4.15
2022-07-25T02:46:50.412Z,3.42
2022-07-25T02:49:19.787Z,4.35
2022-07-25T02:51:49.218Z,4.40
2022-07-25T02:54:24.168Z,5.05
2022-07-25T02:56:57.519Z,4.10
2022-07-25T02:59:32.072Z,3.72
2022-07-25T03:02:01.776Z,4.53
2022-07-25T03:04:34.632Z,4.63
2022-07-25T03:07:06.970Z,6.72
2022-07-25T03:09:39.812Z,5.15
2022-07-25T03:12:12.100Z,6.70
2022-07-25T03:14:43.730Z,4.70
2022-07-25T03:17:13.065Z,3.67
2022-07-25T03:19:42.447Z,3.92
2022-07-25T03:22:12.244Z,3.05
2022-07-25T03:24:41.640Z,3.67
2022-07-25T03:27:11.087Z,3.75
2022-07-25T03:29:40.993Z,5.13
2022-07-25T03:32:12.772Z,3.85
2022-07-25T03:34:42.212Z,2.38
2022-07-25T03:37:11.484Z,2.72
2022-07-25T03:39:40.888Z,4.07
2022-07-25T03:42:10.247Z,2.53
2022-07-25T03:44:40.379Z,2.08
2022-07-25T03:47:09.779Z,2.90
2022-07-25T03:49:50.208Z,2.80
2022-07-25T03:52:19.582Z,2.85
2022-07-25T03:54:48.899Z,2.92
2022-07-25T03:57:18.268Z,1.95
2022-07-25T03:59:49.210Z,3.05
2022-07-25T04:02:18.837Z,2.00
2022-07-25T04:04:48.146Z,2.20
2022-07-25T04:07:17.522Z,1.77
2022-07-25T04:09:46.810Z,1.75
2022-07-25T04:12:16.123Z,1.50
2022-07-25T04:14:45.462Z,2.28
2022-07-25T04:17:14.930Z,2.67
2022-07-25T04:19:44.335Z,1.65
2022-07-25T04:22:14.520Z,2.33
2022-07-25T04:24:43.980Z,2.03
2022-07-25T04:27:13.222Z,2.50
2022-07-25T04:29:42.516Z,4.70
2022-07-25T04:32:11.944Z,5.22
2022-07-25T04:34:41.512Z,6.85
2022-07-25T04:37:10.925Z,1.70
2022-07-25T04:42:29.114Z,2.17
2022-07-25T04:44:58.457Z,5.25
2022-07-25T04:47:27.807Z,2.13
2022-07-25T04:49:57.849Z,1.77
2022-07-25T04:52:27.211Z,1.70
2022-07-25T04:54:56.493Z,1.48
2022-07-25T04:57:25.833Z,2.80
2022-07-25T04:59:55.169Z,1.05
2022-07-25T05:02:24.673Z,1.50
2022-07-25T05:04:54.749Z,1.15
2022-07-25T05:07:25.029Z,1.77
2022-07-25T05:09:56.025Z,1.55
2022-07-25T05:12:25.395Z,1.05
2022-07-25T05:14:56.209Z,2.70
2022-07-25T05:17:25.608Z,2.95
2022-07-25T05:19:54.944Z,1.67
2022-07-25T05:22:28.245Z,0.90
2022-07-25T05:24:58.792Z,1.25
2022-07-25T05:27:28.232Z,2.47
2022-07-25T05:29:57.646Z,4.30
2022-07-25T05:32:27.061Z,3.15
2022-07-25T05:34:56.377Z,2.33
2022-07-25T05:37:25.797Z,2.92
2022-07-25T05:39:55.160Z,2.10
2022-07-25T05:42:24.681Z,2.13
2022-07-25T05:44:53.971Z,2.45
2022-07-25T05:47:23.357Z,1.73
2022-07-25T05:49:52.873Z,2.10
2022-07-25T05:52:22.228Z,1.67
2022-07-25T05:54:51.804Z,4.13
2022-07-25T05:57:21.392Z,3.15
2022-07-25T05:59:50.735Z,1.92
2022-07-25T06:02:20.272Z,1.75
2022-07-25T06:04:49.662Z,3.90
2022-07-25T06:07:18.987Z,1.40
2022-07-25T06:09:48.388Z,1.30
2022-07-25T06:12:18.096Z,1.00
2022-07-25T06:14:47.370Z,0.85
2022-07-25T06:17:16.972Z,0.63
2022-07-25T06:19:46.600Z,1.70
2022-07-25T06:22:15.964Z,0.85
2022-07-25T06:24:45.250Z,1.52
2022-07-25T06:27:19.915Z,0.68
2022-07-25T06:29:50.144Z,2.40
2022-07-25T06:32:19.460Z,1.48
2022-07-25T06:34:48.775Z,1.60
2022-07-25T06:37:18.001Z,1.50
2022-07-25T06:39:47.344Z,1.70
2022-07-25T06:42:17.440Z,2.38
2022-07-25T06:44:47.023Z,2.47
2022-07-25T06:47:16.486Z,1.35
2022-07-25T06:49:45.700Z,1.33
2022-07-25T06:52:15.198Z,1.10
2022-07-25T06:54:44.625Z,0.68
2022-07-25T06:57:13.906Z,0.88
2022-07-25T06:59:43.222Z,1.40
2022-07-25T07:02:13.805Z,1.20
2022-07-25T07:04:43.443Z,3.05
2022-07-25T07:07:12.708Z,3.38
2022-07-25T07:09:42.046Z,1.30
2022-07-25T07:12:12.742Z,1.98
2022-07-25T07:14:43.018Z,1.55
2022-07-25T07:17:12.474Z,1.10
2022-07-25T07:19:45.477Z,1.77
2022-07-25T07:22:15.165Z,1.30
2022-07-25T07:24:45.143Z,1.83
2022-07-25T07:27:19.219Z,1.23
2022-07-25T07:29:48.563Z,1.60
2022-07-25T07:32:18.642Z,1.20
2022-07-25T07:34:48.610Z,1.15
2022-07-25T07:37:17.927Z,1.60
2022-07-25T07:39:47.371Z,1.65
2022-07-25T07:42:17.022Z,0.80
2022-07-25T07:44:46.331Z,1.20
2022-07-25T07:47:15.765Z,4.25
2022-07-25T07:49:49.778Z,1.25
2022-07-25T07:52:19.626Z,1.20
2022-07-25T07:55:01.052Z,1.55
2022-07-25T07:57:30.364Z,1.58
2022-07-25T07:59:59.638Z,1.35
2022-07-25T08:02:28.952Z,2.08
2022-07-25T08:04:58.353Z,1.40
2022-07-25T08:07:27.615Z,2.55
2022-07-25T08:09:56.854Z,1.92
2022-07-25T08:12:26.144Z,4.15
2022-07-25T08:14:55.417Z,3.58
2022-07-25T08:17:28.508Z,2.83
2022-07-25T08:20:09.460Z,2.15
2022-07-25T08:22:54.435Z,1.95
2022-07-25T08:25:26.125Z,2.58
2022-07-25T08:27:55.529Z,1.55
2022-07-25T08:30:25.065Z,0.98
2022-07-25T08:33:02.335Z,1.42
2022-07-25T08:35:33.160Z,2.42
2022-07-25T08:38:04.824Z,1.45
2022-07-25T08:40:36.374Z,2.15
2022-07-25T08:43:06.917Z,1.85
2022-07-25T08:45:36.599Z,2.58
2022-07-25T08:48:06.772Z,2.03
2022-07-25T08:50:36.266Z,1.10
2022-07-25T08:53:31.584Z,2.13
2022-07-25T08:55:55.952Z,1.35
2022-07-25T08:58:25.234Z,3.67
2022-07-25T09:00:54.581Z,1.58
2022-07-25T09:03:23.914Z,1.40
2022-07-25T09:05:53.625Z,1.45
2022-07-25T09:08:22.868Z,2.20
2022-07-25T09:10:55.741Z,1.35
2022-07-25T09:13:25.092Z,1.75
2022-07-25T09:15:57.923Z,1.77
2022-07-25T09:18:29.200Z,0.85
2022-07-25T09:21:02.722Z,1.30
2022-07-25T09:23:37.019Z,1.10
2022-07-25T09:26:16.549Z,1.13
2022-07-25T09:28:52.439Z,1.48
2022-07-25T09:31:22.115Z,1.27
2022-07-25T09:33:58.027Z,1.27
2022-07-25T09:36:27.428Z,1.45
2022-07-25T09:39:02.567Z,1.02
2022-07-25T09:41:42.582Z,1.40
2022-07-25T09:44:31.296Z,1.70
2022-07-25T09:47:11.023Z,1.20
2022-07-25T09:49:46.347Z,1.38
2022-07-25T09:52:15.983Z,1.33
2022-07-25T09:54:45.669Z,1.55
2022-07-25T09:57:15.150Z,2.05
2022-07-25T09:59:46.006Z,1.80
2022-07-25T10:02:49.459Z,1.35
2022-07-25T10:05:52.086Z,1.40
2022-07-25T10:08:23.727Z,1.63
2022-07-25T10:10:53.177Z,1.70
2022-07-25T10:13:40.253Z,1.50
2022-07-25T10:16:19.922Z,2.35
2022-07-25T10:18:56.239Z,1.92
2022-07-25T10:21:30.101Z,2.50
2022-07-25T10:24:17.816Z,1.30
2022-07-25T10:29:23.793Z,1.75
2022-07-25T10:31:53.244Z,1.42
2022-07-25T10:34:34.211Z,3.75
2022-07-25T10:37:19.292Z,1.83
2022-07-25T10:39:50.230Z,2.30
2022-07-25T10:42:27.731Z,2.38
2022-07-25T10:45:01.126Z,3.13
2022-07-25T10:47:30.867Z,1.90
2022-07-25T10:50:21.993Z,1.70
2022-07-25T10:53:08.816Z,1.50
2022-07-25T10:55:39.085Z,2.20
2022-07-25T10:58:17.565Z,1.90
2022-07-25T11:00:58.880Z,2.05
2022-07-25T11:03:35.423Z,1.77
2022-07-25T11:06:07.055Z,1.60
2022-07-25T11:08:37.306Z,2.00
2022-07-25T11:11:10.592Z,1.48
2022-07-25T11:13:50.968Z,2.03
2022-07-25T11:16:28.960Z,1.45
2022-07-25T11:21:31.091Z,2.25
2022-07-25T11:24:03.055Z,1.92
2022-07-25T11:26:32.315Z,2.25
2022-07-25T11:29:02.020Z,2.00
2022-07-25T11:34:14.834Z,3.10
2022-07-25T11:36:44.173Z,2.05
2022-07-25T11:39:19.263Z,2.38
2022-07-25T11:42:07.960Z,2.22
2022-07-25T11:44:54.339Z,2.35
2022-07-25T11:47:35.127Z,2.95
2022-07-25T11:50:06.960Z,2.78
2022-07-25T11:52:40.280Z,4.80
2022-07-25T11:55:14.000Z,3.05
2022-07-25T11:57:48.015Z,1.83
2022-07-25T12:00:23.326Z,2.05
2022-07-25T12:02:52.956Z,2.13
2022-07-25T12:05:33.491Z,2.00
2022-07-25T12:08:12.658Z,1.65
2022-07-25T12:10:44.859Z,2.13
2022-07-25T12:13:32.313Z,5.00
2022-07-25T12:16:02.391Z,4.35
2022-07-25T12:18:31.677Z,1.95
2022-07-25T12:21:00.871Z,1.95
2022-07-25T12:23:30.205Z,1.48
2022-07-25T12:25:59.584Z,1.90
2022-07-25T12:28:29.244Z,1.30
2022-07-25T12:30:58.648Z,1.55
2022-07-25T12:33:28.130Z,2.33
2022-07-25T12:35:57.435Z,1.75
2022-07-25T12:38:27.179Z,2.13
2022-07-25T12:40:57.572Z,1.88
2022-07-25T12:43:26.994Z,2.00
2022-07-25T12:45:56.446Z,2.38
2022-07-25T12:48:25.840Z,3.10
2022-07-25T12:51:03.096Z,3.20
2022-07-25T12:53:32.943Z,2.33
2022-07-25T12:56:03.768Z,2.20
2022-07-25T12:58:33.273Z,2.05
2022-07-25T13:01:03.244Z,3.55
2022-07-25T13:03:33.202Z,2.45
2022-07-25T13:06:02.649Z,2.47
2022-07-25T13:08:31.855Z,2.85
2022-07-25T13:11:04.241Z,2.40
2022-07-25T13:13:33.496Z,2.22
2022-07-25T13:16:03.114Z,6.07
2022-07-25T13:18:36.286Z,3.47
2022-07-25T13:21:05.856Z,2.97
2022-07-25T13:23:35.319Z,3.42
2022-07-25T13:26:04.962Z,4.55
2022-07-25T13:28:34.333Z,3.00
2022-07-25T13:31:06.974Z,4.78
2022-07-25T13:33:36.627Z,3.00
2022-07-25T13:36:19.867Z,3.20
2022-07-25T13:38:49.559Z,2.42
2022-07-25T13:41:20.098Z,2.53
2022-07-25T13:43:53.183Z,3.05
2022-07-25T13:46:22.993Z,2.33
2022-07-25T13:48:52.516Z,2.20
2022-07-25T13:51:21.975Z,2.45
2022-07-25T13:53:51.536Z,2.92
2022-07-25T13:56:20.984Z,2.63
2022-07-25T13:58:50.389Z,2.53
2022-07-25T14:01:19.983Z,2.65
2022-07-25T14:03:49.523Z,1.70
2022-07-25T14:06:18.794Z,2.25
2022-07-25T14:08:48.117Z,2.92
2022-07-25T14:11:20.016Z,3.40
2022-07-25T14:13:49.454Z,3.00
2022-07-25T14:16:20.949Z,2.17
2022-07-25T14:18:50.245Z,2.22
2022-07-25T14:21:19.710Z,3.25
2022-07-25T14:23:49.783Z,3.65
2022-07-25T14:26:21.742Z,3.20
2022-07-25T14:28:51.216Z,2.55
2022-07-25T14:31:20.744Z,3.10
2022-07-25T14:33:50.314Z,2.97
2022-07-25T14:36:19.707Z,2.65
2022-07-25T14:38:49.421Z,5.80
2022-07-25T14:41:21.640Z,4.60
2022-07-25T14:43:51.106Z,3.33
2022-07-25T14:46:20.623Z,2.78
2022-07-25T14:48:52.750Z,2.97
2022-07-25T14:51:25.774Z,2.00
2022-07-25T14:53:55.136Z,2.85
2022-07-25T14:56:24.470Z,2.50
2022-07-25T14:58:53.821Z,2.47
2022-07-25T15:01:29.504Z,2.85
2022-07-25T15:03:59.091Z,2.55
2022-07-25T15:06:34.271Z,3.03
2022-07-25T15:09:03.890Z,3.05
2022-07-25T15:11:34.397Z,3.20
2022-07-25T15:14:03.753Z,3.25
2022-07-25T15:16:38.370Z,2.65
2022-07-25T15:19:17.434Z,2.30
2022-07-25T15:21:47.583Z,4.60
2022-07-25T15:24:19.966Z,9.02
2022-07-25T15:26:49.271Z,4.53
2022-07-25T15:29:21.893Z,3.35
2022-07-25T15:31:59.490Z,3.80
2022-07-25T15:34:33.431Z,3.97
2022-07-25T15:37:02.981Z,5.43
2022-07-25T15:39:35.156Z,3.15
2022-07-25T15:42:09.727Z,3.88
2022-07-25T15:44:39.047Z,3.70
2022-07-25T15:47:11.666Z,2.90
2022-07-25T15:49:41.386Z,4.28
2022-07-25T15:52:10.755Z,4.68
2022-07-25T15:54:40.061Z,3.90
2022-07-25T15:57:09.377Z,3.38
2022-07-25T15:59:38.784Z,3.88
2022-07-25T16:02:11.357Z,3.95
2022-07-25T16:04:43.967Z,4.68
2022-07-25T16:07:13.924Z,4.40
2022-07-25T16:09:44.308Z,4.63
2022-07-25T16:12:13.837Z,3.33
2022-07-25T16:14:43.134Z,3.13
2022-07-25T16:17:12.567Z,3.10
2022-07-25T16:19:41.840Z,3.67
2022-07-25T16:22:11.608Z,4.05
2022-07-25T16:24:40.958Z,4.18
2022-07-25T16:27:11.042Z,3.33
2022-07-25T16:29:41.349Z,3.05
2022-07-25T16:32:10.833Z,4.13
2022-07-25T16:34:40.219Z,3.25
2022-07-25T16:37:10.209Z,3.00
2022-07-25T16:39:39.585Z,3.75
2022-07-25T16:42:09.442Z,3.25
2022-07-25T16:44:38.823Z,2.60
2022-07-25T16:47:10.257Z,3.35
2022-07-25T16:49:41.841Z,4.20
2022-07-25T16:52:11.460Z,4.65
2022-07-25T16:54:43.561Z,3.20
2022-07-25T16:57:12.901Z,3.80
2022-07-25T16:59:42.229Z,4.20
2022-07-25T17:02:11.890Z,5.90
2022-07-25T17:04:41.487Z,5.85
2022-07-25T17:07:10.863Z,4.03
2022-07-25T17:09:41.606Z,3.33
2022-07-25T17:12:11.103Z,3.17
2022-07-25T17:14:40.336Z,3.17
2022-07-25T17:17:10.140Z,3.72
2022-07-25T17:19:40.959Z,3.20
2022-07-25T17:22:11.508Z,3.40
2022-07-25T17:24:41.705Z,2.30
2022-07-25T17:27:12.811Z,3.38
2022-07-25T17:29:42.222Z,3.78
2022-07-25T17:32:11.579Z,2.75
2022-07-25T17:34:40.971Z,3.35
2022-07-25T17:37:10.670Z,3.25
2022-07-25T17:39:40.034Z,3.13
2022-07-25T17:42:09.754Z,4.18
2022-07-25T17:44:38.954Z,3.58
2022-07-25T17:47:09.180Z,3.55
2022-07-25T17:49:38.454Z,2.95
2022-07-25T17:52:07.833Z,4.47
2022-07-25T17:54:37.330Z,4.43
2022-07-25T17:57:07.034Z,4.18
2022-07-25T17:59:36.526Z,4.15
2022-07-25T18:02:06.598Z,3.97
2022-07-25T18:04:36.160Z,4.50
2022-07-25T18:07:06.985Z,6.20
2022-07-25T18:09:36.548Z,4.43
2022-07-25T18:12:06.399Z,4.22
2022-07-25T18:14:35.830Z,4.25
2022-07-25T18:17:07.267Z,4.68
2022-07-25T18:19:36.751Z,7.80
2022-07-25T18:22:06.336Z,10.98
2022-07-25T18:24:35.695Z,9.07
2022-07-25T18:27:06.616Z,7.03
2022-07-25T18:29:39.368Z,4.75
2022-07-25T18:32:10.072Z,5.78
2022-07-25T18:34:39.432Z,9.65
2022-07-25T18:37:08.818Z,8.82
2022-07-25T18:39:38.234Z,7.28
2022-07-25T18:42:08.808Z,8.00
2022-07-25T18:44:38.150Z,6.78
2022-07-25T18:47:07.957Z,6.00
2022-07-25T18:49:37.327Z,4.15
2022-07-25T18:52:09.680Z,4.20
2022-07-25T18:54:39.353Z,3.83
2022-07-25T18:57:09.037Z,3.67
2022-07-25T18:59:38.910Z,3.78
2022-07-25T19:02:08.325Z,3.55
2022-07-25T19:04:37.672Z,3.70
2022-07-25T19:07:07.082Z,3.65
2022-07-25T19:09:36.621Z,4.32
2022-07-25T19:12:06.287Z,4.40
2022-07-25T19:14:35.836Z,3.85
2022-07-25T19:17:06.164Z,4.05
2022-07-25T19:19:35.666Z,4.75
2022-07-25T19:22:05.139Z,4.32
2022-07-25T19:24:34.438Z,4.38
2022-07-25T19:27:06.172Z,3.97
2022-07-25T19:29:35.441Z,4.20
2022-07-25T19:32:05.339Z,4.40
2022-07-25T19:34:34.790Z,3.70
2022-07-25T19:37:04.867Z,3.10
2022-07-25T19:39:34.182Z,3.60
2022-07-25T19:42:08.591Z,3.90
2022-07-25T19:44:38.827Z,3.42
2022-07-25T19:47:11.610Z,3.78
2022-07-25T19:49:42.333Z,3.53
2022-07-25T19:52:12.820Z,4.82
2022-07-25T19:54:42.307Z,4.70
2022-07-25T19:57:11.780Z,4.43
2022-07-25T19:59:41.198Z,5.38
2022-07-25T20:02:10.637Z,4.70
2022-07-25T20:04:39.991Z,4.60
2022-07-25T20:07:09.368Z,4.43
2022-07-25T20:09:38.608Z,4.50
2022-07-25T20:12:09.754Z,5.32
2022-07-25T20:14:39.122Z,4.50
2022-07-25T20:17:09.522Z,4.40
2022-07-25T20:19:39.325Z,3.45
2022-07-25T20:22:08.798Z,4.57
2022-07-25T20:24:38.214Z,3.60
2022-07-25T20:27:08.289Z,7.50
2022-07-25T20:29:37.823Z,6.93
2022-07-25T20:32:07.889Z,5.47
2022-07-25T20:34:37.213Z,5.10
2022-07-25T20:37:06.519Z,4.72
2022-07-25T20:39:35.794Z,4.35
2022-07-25T20:42:05.687Z,5.68
2022-07-25T20:44:35.701Z,5.20
2022-07-25T20:47:05.212Z,6.22
2022-07-25T20:49:34.848Z,6.85
2022-07-25T20:52:04.244Z,5.35
2022-07-25T20:54:33.716Z,4.78
2022-07-25T20:57:03.241Z,4.75
2022-07-25T20:59:33.430Z,5.20
2022-07-25T21:02:02.819Z,5.32
2022-07-25T21:04:32.210Z,4.78
2022-07-25T21:07:01.507Z,4.82
2022-07-25T21:09:34.500Z,4.72
2022-07-25T21:12:04.302Z,3.85
2022-07-25T21:14:33.652Z,3.85
2022-07-25T21:17:03.097Z,4.80
2022-07-25T21:19:32.699Z,5.03
2022-07-25T21:22:03.866Z,5.65
2022-07-25T21:24:34.263Z,5.40
2022-07-25T21:27:03.616Z,6.03
2022-07-25T21:29:32.880Z,5.60
2022-07-25T21:32:04.209Z,5.35
2022-07-25T21:34:33.623Z,5.15
2022-07-25T21:37:03.060Z,4.72
2022-07-25T21:39:32.540Z,4.90
2022-07-25T21:42:02.471Z,4.53
2022-07-25T21:44:34.110Z,5.70
2022-07-25T21:47:03.521Z,6.10
2022-07-25T21:49:45.091Z,5.53
2022-07-25T21:52:15.587Z,5.72
2022-07-25T21:54:45.750Z,6.63
2022-07-25T21:57:15.381Z,5.75
2022-07-25T21:59:46.488Z,6.15
2022-07-25T22:02:15.877Z,6.13
2022-07-25T22:04:45.269Z,6.28
2022-07-25T22:07:14.720Z,6.28
2022-07-25T22:09:44.118Z,7.25
2022-07-25T22:12:13.791Z,6.30
2022-07-25T22:14:43.218Z,6.35
2022-07-25T22:17:14.723Z,6.00
2022-07-25T22:19:44.144Z,6.03
2022-07-25T22:22:13.632Z,6.03
2022-07-25T22:24:46.462Z,6.68
2022-07-25T22:27:16.744Z,6.30
2022-07-25T22:29:46.078Z,6.88
2022-07-25T22:32:15.657Z,6.97
2022-07-25T22:34:44.934Z,6.55
2022-07-25T22:37:14.211Z,5.45
2022-07-25T22:39:43.602Z,7.05
2022-07-25T22:42:16.277Z,7.05
2022-07-25T22:44:45.725Z,7.40
2022-07-25T22:47:15.078Z,6.72
2022-07-25T22:49:44.395Z,9.32
2022-07-25T22:52:14.677Z,8.35
2022-07-25T22:54:44.513Z,7.28
2022-07-25T22:57:13.791Z,6.90
2022-07-25T22:59:43.334Z,6.68
2022-07-25T23:02:12.707Z,6.35
2022-07-25T23:04:42.066Z,7.20
2022-07-25T23:07:11.627Z,9.35
2022-07-25T23:09:44.441Z,7.50
2022-07-25T23:12:13.728Z,7.18
2022-07-25T23:14:43.062Z,7.15
2022-07-25T23:17:18.626Z,8.45
2022-07-25T23:19:53.021Z,9.30
2022-07-25T23:22:26.572Z,14.75
2022-07-25T23:24:57.086Z,19.48
2022-07-25T23:27:27.479Z,19.70
2022-07-25T23:29:56.808Z,20.48
2022-07-25T23:32:26.141Z,15.35
2022-07-25T23:34:55.469Z,13.90
2022-07-25T23:37:24.916Z,15.25
2022-07-25T23:39:54.479Z,12.70
2022-07-25T23:42:24.935Z,13.30
2022-07-25T23:44:54.245Z,12.15
2022-07-25T23:47:36.890Z,11.88
2022-07-25T23:50:12.603Z,12.63
2022-07-25T23:52:42.074Z,12.48
2022-07-25T23:55:13.079Z,14.38
2022-07-25T23:57:48.715Z,14.75
